| time (UTC) | temp F | wind direction | speed MPH | gust MPH | rain 1hr in | rain 24hr in | rain mn in | humidity % | barometer mb |
| 20260503232145 | 72 | 63 | 0.0 | 2.0 | 0.00 | 0.00 | 0.00 | 33 | 1004.7 |
| 20260503231945 | 72 | 63 | 0.0 | 3.0 | 0.00 | 0.00 | 0.00 | 33 | 1004.7 |
| 20260503231832 | 72 | 63 | 0.0 | 3.0 | 0.00 | 0.00 | 0.00 | 33 | 1004.7 |
| 20260503231734 | 72 | 63 | 0.0 | 3.0 | 0.00 | 0.00 | 0.00 | 33 | 1004.8 |
| 20260503231633 | 72 | 61 | 0.0 | 3.0 | 0.00 | 0.00 | 0.00 | 30 | 1004.8 |
| 20260503231610 | 72 | 61 | 0.0 | 3.0 | 0.00 | 0.00 | 0.00 | 30 | 1004.8 |
| 20260503231547 | 72 | 61 | 0.0 | 3.0 | 0.00 | 0.00 | 0.00 | 30 | 1004.8 |
| 20260503231133 | 72 | 42 | 0.0 | 3.0 | 0.00 | 0.00 | 0.00 | 32 | 1004.9 |
| 20260503231041 | 72 | 210 | 0.0 | 0.0 | 0.00 | 0.00 | 0.00 | 29 | 1004.8 |
| 20260503230802 | 72 | 206 | 0.0 | 0.0 | 0.00 | 0.00 | 0.00 | 29 | 1004.8 |
| 20260503230734 | 72 | 206 | 0.0 | 0.0 | 0.00 | 0.00 | 0.00 | 29 | 1004.9 |
| 20260503230554 | 72 | 206 | 0.0 | 4.0 | 0.00 | 0.00 | 0.00 | 29 | 1005.0 |
| 20260503230542 | 72 | 206 | 0.0 | 3.0 | 0.00 | 0.00 | 0.00 | 29 | 1004.9 |
| 20260503230519 | 72 | 206 | 0.0 | 4.0 | 0.00 | 0.00 | 0.00 | 29 | 1005.0 |
| 20260503230107 | 72 | 206 | 0.0 | 4.0 | 0.00 | 0.00 | 0.00 | 29 | 1004.9 |
| 20260503225907 | 72 | 245 | 0.0 | 4.0 | 0.00 | 0.00 | 0.00 | 29 | 1004.9 |
| 20260503225802 | 72 | 245 | 0.0 | 4.0 | 0.00 | 0.00 | 0.00 | 29 | 1004.8 |
| 20260503225634 | 72 | 245 | 0.0 | 4.0 | 0.00 | 0.00 | 0.00 | 29 | 1004.9 |
| 20260503225604 | 72 | 192 | 0.0 | 0.0 | 0.00 | 0.00 | 0.00 | 34 | 1005.0 |
| 20260503225559 | 72 | 192 | 0.0 | 0.0 | 0.00 | 0.00 | 0.00 | 34 | 1005.0 |
| 20260503225531 | 72 | 244 | 0.0 | 3.0 | 0.00 | 0.00 | 0.00 | 30 | 1004.8 |
| 20260503225017 | 72 | 192 | 0.0 | 0.0 | 0.00 | 0.00 | 0.00 | 34 | 1004.9 |
| 20260503224812 | 72 | 192 | 0.0 | 0.0 | 0.00 | 0.00 | 0.00 | 34 | 1004.9 |
| 20260503224731 | 72 | 192 | 0.0 | 0.0 | 0.00 | 0.00 | 0.00 | 34 | 1004.9 |
| 20260503224612 | 72 | 192 | 0.0 | 0.0 | 0.00 | 0.00 | 0.00 | 34 | 1004.9 |
| 20260503224410 | 72 | 93 | 0.0 | 3.0 | 0.00 | 0.00 | 0.00 | 32 | 1005.0 |
| 20260503224204 | 72 | 157 | 0.0 | 7.0 | 0.00 | 0.00 | 0.00 | 29 | 1005.1 |
| 20260503224008 | 71 | 224 | 0.0 | 7.0 | 0.00 | 0.00 | 0.00 | 32 | 1004.9 |
| 20260503224001 | 71 | 197 | 0.0 | 7.0 | 0.00 | 0.00 | 0.00 | 29 | 1005.0 |
| 20260503223934 | 71 | 224 | 0.0 | 7.0 | 0.00 | 0.00 | 0.00 | 28 | 1005.0 |
| 20260503223602 | 71 | 251 | 0.0 | 7.0 | 0.00 | 0.00 | 0.00 | 29 | 1005.0 |
| 20260503223403 | 71 | 240 | 0.0 | 7.0 | 0.00 | 0.00 | 0.00 | 29 | 1005.1 |
| 20260503223212 | 71 | 213 | 0.0 | 6.0 | 0.00 | 0.00 | 0.00 | 29 | 1005.0 |
| 20260503223204 | 71 | 175 | 0.0 | 6.0 | 0.00 | 0.00 | 0.00 | 29 | 1005.1 |
| 20260503223007 | 71 | 175 | 0.0 | 10.0 | 0.00 | 0.00 | 0.00 | 29 | 1005.1 |
| 20260503222928 | 71 | 290 | 0.0 | 10.0 | 0.00 | 0.00 | 0.00 | 28 | 1005.1 |
| 20260503222609 | 71 | 290 | 0.0 | 10.0 | 0.00 | 0.00 | 0.00 | 28 | 1005.1 |
| 20260503222313 | 71 | 210 | 0.0 | 10.0 | 0.00 | 0.00 | 0.00 | 31 | 1005.1 |
| 20260503222211 | 71 | 209 | 0.0 | 10.0 | 0.00 | 0.00 | 0.00 | 31 | 1005.1 |
| 20260503222111 | 71 | 278 | 0.0 | 9.0 | 0.00 | 0.00 | 0.00 | 31 | 1005.2 |
| 20260503221953 | 72 | 278 | 0.0 | 11.0 | 0.00 | 0.00 | 0.00 | 31 | 1005.0 |
| 20260503221940 | 72 | 278 | 0.0 | 11.0 | 0.00 | 0.00 | 0.00 | 31 | 1005.1 |
| 20260503221922 | 72 | 278 | 0.0 | 11.0 | 0.00 | 0.00 | 0.00 | 31 | 1005.0 |
| 20260503221511 | 72 | 206 | 0.0 | 11.0 | 0.00 | 0.00 | 0.00 | 32 | 1005.0 |
| 20260503221312 | 72 | 216 | 0.0 | 11.0 | 0.00 | 0.00 | 0.00 | 30 | 1005.1 |
| 20260503221209 | 72 | 224 | 0.0 | 11.0 | 0.00 | 0.00 | 0.00 | 29 | 1005.1 |
| 20260503221111 | 72 | 278 | 0.0 | 11.0 | 0.00 | 0.00 | 0.00 | 29 | 1005.1 |
| 20260503221013 | 72 | 250 | 0.0 | 7.0 | 0.00 | 0.00 | 0.00 | 32 | 1005.1 |
| 20260503220704 | 72 | 240 | 0.0 | 7.0 | 0.00 | 0.00 | 0.00 | 32 | 1005.0 |
| 20260503220511 | 71 | 251 | 0.0 | 7.0 | 0.00 | 0.00 | 0.00 | 32 | 1005.0 |
| 20260503220311 | 71 | 144 | 0.0 | 7.0 | 0.00 | 0.00 | 0.00 | 32 | 1005.0 |
| 20260503220206 | 71 | 59 | 0.0 | 10.0 | 0.00 | 0.00 | 0.00 | 31 | 1005.0 |
| 20260503220111 | 71 | 214 | 0.0 | 10.0 | 0.00 | 0.00 | 0.00 | 31 | 1005.0 |
| 20260503220005 | 71 | 228 | 0.0 | 13.0 | 0.00 | 0.00 | 0.00 | 29 | 1005.2 |
| 20260503215941 | 71 | 235 | 0.0 | 13.0 | 0.00 | 0.00 | 0.00 | 31 | 1005.2 |
| 20260503215918 | 71 | 228 | 0.0 | 13.0 | 0.00 | 0.00 | 0.00 | 29 | 1005.2 |
| 20260503215507 | 71 | 251 | 0.0 | 13.0 | 0.00 | 0.00 | 0.00 | 29 | 1005.1 |
| 20260503215305 | 71 | 247 | 0.0 | 13.0 | 0.00 | 0.00 | 0.00 | 29 | 1005.2 |
| 20260503215210 | 72 | 252 | 0.0 | 13.0 | 0.00 | 0.00 | 0.00 | 31 | 1005.1 |
| 20260503215205 | 71 | 245 | 0.0 | 13.0 | 0.00 | 0.00 | 0.00 | 30 | 1005.2 |
| 20260503215008 | 71 | 248 | 0.0 | 6.0 | 0.00 | 0.00 | 0.00 | 36 | 1005.1 |
| 20260503214945 | 72 | 257 | 0.0 | 9.0 | 0.00 | 0.00 | 0.00 | 32 | 1005.0 |
| 20260503214918 | 71 | 248 | 0.0 | 6.0 | 0.00 | 0.00 | 0.00 | 36 | 1005.1 |
| 20260503214508 | 71 | 259 | 0.0 | 9.0 | 0.00 | 0.00 | 0.00 | 32 | 1005.1 |
| 20260503214307 | 72 | 272 | 0.0 | 9.0 | 0.00 | 0.00 | 0.00 | 33 | 1005.2 |
| 20260503214207 | 72 | 272 | 0.0 | 9.0 | 0.00 | 0.00 | 0.00 | 33 | 1005.1 |
| 20260503214059 | 72 | 272 | 0.0 | 9.0 | 0.00 | 0.00 | 0.00 | 33 | 1005.1 |
| 20260503213921 | 72 | 272 | 0.0 | 9.0 | 0.00 | 0.00 | 0.00 | 33 | 1005.1 |
| 20260503213909 | 72 | 272 | 0.0 | 9.0 | 0.00 | 0.00 | 0.00 | 33 | 1005.2 |
| 20260503213846 | 72 | 272 | 0.0 | 9.0 | 0.00 | 0.00 | 0.00 | 33 | 1005.2 |
| 20260503213557 | 72 | 165 | 0.0 | 9.0 | 0.00 | 0.00 | 0.00 | 31 | 1005.2 |
| 20260503213258 | 72 | 238 | 0.0 | 5.0 | 0.00 | 0.00 | 0.00 | 33 | 1005.3 |
| 20260503213131 | 72 | 202 | 0.0 | 6.0 | 0.00 | 0.00 | 0.00 | 34 | 1005.2 |
| 20260503213059 | 71 | 233 | 0.0 | 9.0 | 0.00 | 0.00 | 0.00 | 36 | 1005.2 |
| 20260503212900 | 71 | 233 | 0.0 | 9.0 | 0.00 | 0.00 | 0.00 | 36 | 1005.3 |
| 20260503212632 | 71 | 233 | 0.0 | 10.0 | 0.00 | 0.00 | 0.00 | 36 | 1005.2 |
| 20260503212441 | 71 | 209 | 0.0 | 11.0 | 0.00 | 0.00 | 0.00 | 36 | 1005.3 |
| 20260503212240 | 71 | 240 | 0.0 | 11.0 | 0.00 | 0.00 | 0.00 | 35 | 1005.3 |
| 20260503212128 | 71 | 274 | 0.0 | 11.0 | 0.00 | 0.00 | 0.00 | 35 | 1005.2 |
| 20260503212033 | 71 | 188 | 0.0 | 11.0 | 0.00 | 0.00 | 0.00 | 32 | 1005.4 |
| 20260503212016 | 71 | 252 | 0.0 | 11.0 | 0.00 | 0.00 | 0.00 | 33 | 1005.3 |
| 20260503211931 | 71 | 251 | 0.0 | 11.0 | 0.00 | 0.00 | 0.00 | 32 | 1005.2 |
| 20260503211842 | 71 | 261 | 0.0 | 11.0 | 0.00 | 0.00 | 0.00 | 32 | 1005.2 |
| 20260503211434 | 72 | 254 | 0.0 | 9.0 | 0.00 | 0.00 | 0.00 | 32 | 1005.3 |
| 20260503211230 | 72 | 250 | 0.0 | 9.0 | 0.00 | 0.00 | 0.00 | 34 | 1005.2 |
| 20260503211129 | 72 | 255 | 0.0 | 9.0 | 0.00 | 0.00 | 0.00 | 32 | 1005.2 |
| 20260503211032 | 72 | 209 | 0.0 | 9.0 | 0.00 | 0.00 | 0.00 | 32 | 1005.2 |
| 20260503210909 | 73 | 76 | 0.0 | 4.0 | 0.00 | 0.00 | 0.00 | 34 | 1005.3 |
| 20260503210858 | 73 | 76 | 0.0 | 4.0 | 0.00 | 0.00 | 0.00 | 34 | 1005.3 |
| 20260503210608 | 73 | 6 | 0.0 | 5.0 | 0.00 | 0.00 | 0.00 | 34 | 1005.3 |
| 20260503210402 | 71 | 114 | 0.0 | 5.0 | 0.00 | 0.00 | 0.00 | 32 | 1005.4 |
| 20260503210205 | 71 | 114 | 0.0 | 7.0 | 0.00 | 0.00 | 0.00 | 32 | 1005.4 |
| 20260503210130 | 71 | 114 | 0.0 | 7.0 | 0.00 | 0.00 | 0.00 | 32 | 1005.4 |
| 20260503210108 | 71 | 114 | 0.0 | 7.0 | 0.00 | 0.00 | 0.00 | 32 | 1005.4 |
| 20260503205858 | 71 | 234 | 0.0 | 7.0 | 0.00 | 0.00 | 0.00 | 32 | 1005.5 |
| 20260503205842 | 71 | 114 | 0.0 | 7.0 | 0.00 | 0.00 | 0.00 | 32 | 1005.4 |
| 20260503205548 | 71 | 231 | 0.0 | 7.0 | 0.00 | 0.00 | 0.00 | 34 | 1005.5 |
| 20260503205335 | 71 | 238 | 0.0 | 7.0 | 0.00 | 0.00 | 0.00 | 34 | 1005.5 |
| 20260503205135 | 0 | 0.0 | 0.0 | 0.00 | 0.00 | 0.00 | 1005.5 | ||
| 20260503205103 | 72 | 266 | 0.0 | 10.0 | 0.00 | 0.00 | 0.00 | 33 | 1005.5 |
| 20260503204937 | 72 | 266 | 0.0 | 10.0 | 0.00 | 0.00 | 0.00 | 33 | 1005.5 |
| 20260503204737 | 72 | 266 | 0.0 | 10.0 | 0.00 | 0.00 | 0.00 | 33 | 1005.6 |
| 20260503204602 | 72 | 266 | 0.0 | 10.0 | 0.00 | 0.00 | 0.00 | 33 | 1005.5 |
| 20260503204507 | 72 | 266 | 0.0 | 10.0 | 0.00 | 0.00 | 0.00 | 33 | 1005.5 |
| 20260503204410 | 72 | 266 | 0.0 | 10.0 | 0.00 | 0.00 | 0.00 | 33 | 1005.6 |
| 20260503204059 | 72 | 274 | 0.0 | 7.0 | 0.00 | 0.00 | 0.00 | 38 | 1005.6 |
| 20260503204036 | 72 | 180 | 0.0 | 7.0 | 0.00 | 0.00 | 0.00 | 38 | 1005.6 |
| 20260503203857 | 71 | 8 | 0.0 | 7.0 | 0.00 | 0.00 | 0.00 | 35 | 1005.6 |
| 20260503203648 | 71 | 254 | 0.0 | 7.0 | 0.00 | 0.00 | 0.00 | 35 | 1005.6 |
| 20260503203530 | 71 | 248 | 0.0 | 7.0 | 0.00 | 0.00 | 0.00 | 33 | 1005.6 |
| 20260503203446 | 71 | 245 | 0.0 | 7.0 | 0.00 | 0.00 | 0.00 | 33 | 1005.6 |
| 20260503203238 | 71 | 248 | 0.0 | 7.0 | 0.00 | 0.00 | 0.00 | 32 | 1005.7 |
| 20260503203034 | 71 | 6 | 0.0 | 5.0 | 0.00 | 0.00 | 0.00 | 35 | 1005.7 |
| 20260503202833 | 71 | 244 | 0.0 | 5.0 | 0.00 | 0.00 | 0.00 | 32 | 1005.7 |
| 20260503202736 | 72 | 266 | 0.0 | 5.0 | 0.00 | 0.00 | 0.00 | 32 | 1005.8 |
| 20260503202531 | 72 | 266 | 0.0 | 5.0 | 0.00 | 0.00 | 0.00 | 32 | 1005.9 |
| 20260503202432 | 72 | 266 | 0.0 | 5.0 | 0.00 | 0.00 | 0.00 | 32 | 1005.8 |
| 20260503202215 | 72 | 255 | 0.0 | 5.0 | 0.00 | 0.00 | 0.00 | 34 | 1005.8 |
| 20260503202022 | 70 | 221 | 0.0 | 5.0 | 0.00 | 0.00 | 0.00 | 34 | 1005.7 |
| 20260503202014 | 70 | 221 | 0.0 | 5.0 | 0.00 | 0.00 | 0.00 | 34 | 1005.8 |
| 20260503201816 | 70 | 221 | 0.0 | 5.0 | 0.00 | 0.00 | 0.00 | 34 | 1005.8 |
| 20260503201616 | 70 | 221 | 0.0 | 11.0 | 0.00 | 0.00 | 0.00 | 34 | 1005.8 |
| 20260503201518 | 70 | 221 | 0.0 | 11.0 | 0.00 | 0.00 | 0.00 | 34 | 1005.9 |
| 20260503201407 | 70 | 223 | 0.0 | 11.0 | 0.00 | 0.00 | 0.00 | 34 | 1005.9 |
| 20260503201210 | 71 | 264 | 0.0 | 11.0 | 0.00 | 0.00 | 0.00 | 35 | 1005.9 |
| 20260503201110 | 71 | 254 | 0.0 | 11.0 | 0.00 | 0.00 | 0.00 | 34 | 1006.0 |
| 20260503201014 | 71 | 254 | 0.0 | 11.0 | 0.00 | 0.00 | 0.00 | 34 | 1006.0 |
| 20260503200739 | 71 | 223 | 0.0 | 11.0 | 0.00 | 0.00 | 0.00 | 34 | 1006.1 |
| 20260503200543 | 71 | 233 | 0.0 | 5.0 | 0.00 | 0.00 | 0.00 | 32 | 1006.0 |
| 20260503200509 | 71 | 247 | 0.0 | 5.0 | 0.00 | 0.00 | 0.00 | 33 | 1006.0 |
| 20260503200333 | 72 | 45 | 0.0 | 5.0 | 0.00 | 0.00 | 0.00 | 35 | 1006.2 |
| 20260503200133 | 71 | 241 | 0.0 | 4.0 | 0.00 | 0.00 | 0.00 | 36 | 1006.1 |
| 20260503200008 | 71 | 326 | 0.0 | 4.0 | 0.00 | 0.00 | 0.00 | 32 | 1006.1 |
| 20260503195935 | 71 | 257 | 0.0 | 0.0 | 0.00 | 0.00 | 0.00 | 32 | 1006.1 |
| 20260503195719 | 71 | 7 | 0.0 | 3.0 | 0.00 | 0.00 | 0.00 | 34 | 1006.2 |
| 20260503195507 | 71 | 7 | 0.0 | 9.0 | 0.00 | 0.00 | 0.00 | 34 | 1006.2 |
| 20260503195306 | 71 | 7 | 0.0 | 9.0 | 0.00 | 0.00 | 0.00 | 34 | 1006.3 |
| 20260503195203 | 71 | 7 | 0.0 | 9.0 | 0.00 | 0.00 | 0.00 | 34 | 1006.2 |
| 20260503195002 | 71 | 7 | 0.0 | 9.0 | 0.00 | 0.00 | 0.00 | 34 | 1006.2 |
| 20260503194904 | 71 | 7 | 0.0 | 9.0 | 0.00 | 0.00 | 0.00 | 34 | 1006.2 |
| 20260503194702 | 71 | 227 | 0.0 | 10.0 | 0.00 | 0.00 | 0.00 | 36 | 1006.3 |
| 20260503194504 | 71 | 130 | 0.0 | 10.0 | 0.00 | 0.00 | 0.00 | 34 | 1006.3 |
| 20260503194447 | 71 | 10 | 0.0 | 10.0 | 0.00 | 0.00 | 0.00 | 34 | 1006.3 |
| 20260503194305 | 71 | 8 | 0.0 | 10.0 | 0.00 | 0.00 | 0.00 | 34 | 1006.3 |
| 20260503194101 | 71 | 252 | 0.0 | 10.0 | 0.00 | 0.00 | 0.00 | 36 | 1006.3 |
| 20260503193943 | 71 | 241 | 0.0 | 10.0 | 0.00 | 0.00 | 0.00 | 36 | 1006.3 |
| 20260503193902 | 71 | 233 | 0.0 | 10.0 | 0.00 | 0.00 | 0.00 | 36 | 1006.3 |
| 20260503193701 | 71 | 240 | 0.0 | 6.0 | 0.00 | 0.00 | 0.00 | 34 | 1006.2 |
| 20260503193603 | 71 | 275 | 0.0 | 6.0 | 0.00 | 0.00 | 0.00 | 34 | 1006.3 |
| 20260503193437 | 71 | 276 | 0.0 | 6.0 | 0.00 | 0.00 | 0.00 | 34 | 1006.3 |
| 20260503193302 | 71 | 274 | 0.0 | 7.0 | 0.00 | 0.00 | 0.00 | 37 | 1006.3 |
| 20260503193103 | 71 | 179 | 0.0 | 15.0 | 0.00 | 0.00 | 0.00 | 38 | 1006.3 |
| 20260503192930 | 71 | 179 | 0.0 | 15.0 | 0.00 | 0.00 | 0.00 | 38 | 1006.3 |
| 20260503192902 | 71 | 179 | 0.0 | 15.0 | 0.00 | 0.00 | 0.00 | 38 | 1006.3 |
| 20260503192725 | 70 | 292 | 0.0 | 15.0 | 0.00 | 0.00 | 0.00 | 36 | 1006.2 |
| 20260503192719 | 71 | 171 | 0.0 | 15.0 | 0.00 | 0.00 | 0.00 | 38 | 1006.2 |
| 20260503192652 | 70 | 241 | 0.0 | 15.0 | 0.00 | 0.00 | 0.00 | 36 | 1006.3 |
| 20260503192305 | 70 | 247 | 0.0 | 15.0 | 0.00 | 0.00 | 0.00 | 33 | 1006.2 |
| 20260503192226 | 71 | 247 | 0.0 | 7.0 | 0.00 | 0.00 | 0.00 | 46 | 1006.2 |
| 20260503192221 | 71 | 243 | 0.0 | 7.0 | 0.00 | 0.00 | 0.00 | 34 | 1006.2 |
| 20260503192203 | 71 | 251 | 0.0 | 9.0 | 0.00 | 0.00 | 0.00 | 34 | 1006.1 |
| 20260503191703 | 71 | 240 | 0.0 | 6.0 | 0.00 | 0.00 | 0.00 | 39 | 1006.2 |
| 20260503191502 | 71 | 102 | 0.0 | 6.0 | 0.00 | 0.00 | 0.00 | 39 | 1006.3 |
| 20260503191431 | 71 | 102 | 0.0 | 6.0 | 0.00 | 0.00 | 0.00 | 39 | 1006.3 |
| 20260503191303 | 71 | 16 | 0.0 | 6.0 | 0.00 | 0.00 | 0.00 | 39 | 1006.2 |
| 20260503191216 | 71 | 244 | 0.0 | 5.0 | 0.00 | 0.00 | 0.00 | 37 | 1006.3 |
| 20260503191200 | 71 | 285 | 0.0 | 5.0 | 0.00 | 0.00 | 0.00 | 35 | 1006.1 |
| 20260503190900 | 71 | 230 | 0.0 | 5.0 | 0.00 | 0.00 | 0.00 | 37 | 1006.3 |
| 20260503190657 | 71 | 255 | 0.0 | 5.0 | 0.00 | 0.00 | 0.00 | 40 | 1006.3 |
| 20260503190605 | 71 | 63 | 0.0 | 5.0 | 0.00 | 0.00 | 0.00 | 37 | 1006.2 |
| 20260503190434 | 71 | 63 | 0.0 | 6.0 | 0.00 | 0.00 | 0.00 | 37 | 1006.2 |
| 20260503190302 | 71 | 63 | 0.0 | 6.0 | 0.00 | 0.00 | 0.00 | 37 | 1006.3 |
| 20260503190210 | 70 | 142 | 0.0 | 6.0 | 0.00 | 0.00 | 0.00 | 42 | 1006.4 |
| 20260503190148 | 71 | 116 | 0.0 | 6.0 | 0.00 | 0.00 | 0.00 | 38 | 1006.3 |
| 20260503185836 | 70 | 34 | 0.0 | 6.0 | 0.00 | 0.00 | 0.00 | 42 | 1006.3 |
| 20260503185635 | 70 | 128 | 0.0 | 6.0 | 0.00 | 0.00 | 0.00 | 40 | 1006.4 |
| 20260503185431 | 70 | 231 | 0.0 | 5.0 | 0.00 | 0.00 | 0.00 | 38 | 1006.4 |
| 20260503185416 | 71 | 258 | 0.0 | 5.0 | 0.00 | 0.00 | 0.00 | 37 | 1006.4 |
| 20260503185232 | 71 | 92 | 0.0 | 5.0 | 0.00 | 0.00 | 0.00 | 37 | 1006.5 |
| 20260503185031 | 71 | 92 | 0.0 | 5.0 | 0.00 | 0.00 | 0.00 | 37 | 1006.4 |
| 20260503184933 | 71 | 92 | 0.0 | 5.0 | 0.00 | 0.00 | 0.00 | 37 | 1006.4 |
| 20260503184903 | 71 | 92 | 0.0 | 5.0 | 0.00 | 0.00 | 0.00 | 37 | 1006.3 |
| 20260503184630 | 71 | 92 | 0.0 | 5.0 | 0.00 | 0.00 | 0.00 | 37 | 1006.3 |
| 20260503184423 | 71 | 202 | 0.0 | 5.0 | 0.00 | 0.00 | 0.00 | 37 | 1006.5 |
| 20260503184402 | 71 | 340 | 0.0 | 6.0 | 0.00 | 0.00 | 0.00 | 37 | 1006.5 |
| 20260503184223 | 70 | 27 | 0.0 | 9.0 | 0.00 | 0.00 | 0.00 | 38 | 1006.3 |
| 20260503184017 | 70 | 244 | 0.0 | 9.0 | 0.00 | 0.00 | 0.00 | 38 | 1006.4 |
| 20260503183901 | 70 | 300 | 0.0 | 9.0 | 0.00 | 0.00 | 0.00 | 36 | 1006.4 |
| 20260503183816 | 70 | 338 | 0.0 | 9.0 | 0.00 | 0.00 | 0.00 | 40 | 1006.4 |
| 20260503183607 | 71 | 125 | 0.0 | 9.0 | 0.00 | 0.00 | 0.00 | 39 | 1006.5 |
| 20260503183403 | 71 | 265 | 0.0 | 9.0 | 0.00 | 0.00 | 0.00 | 36 | 1006.5 |
| 20260503183201 | 70 | 266 | 0.0 | 7.0 | 0.00 | 0.00 | 0.00 | 39 | 1006.5 |
| 20260503182959 | 70 | 340 | 0.0 | 7.0 | 0.00 | 0.00 | 0.00 | 39 | 1006.4 |
| 20260503182858 | 69 | 293 | 0.0 | 7.0 | 0.00 | 0.00 | 0.00 | 36 | 1006.5 |
| 20260503182758 | 69 | 159 | 0.0 | 7.0 | 0.00 | 0.00 | 0.00 | 38 | 1006.5 |
| 20260503182700 | 69 | 195 | 0.0 | 7.0 | 0.00 | 0.00 | 0.00 | 40 | 1006.6 |
| 20260503182358 | 69 | 196 | 0.0 | 7.0 | 0.00 | 0.00 | 0.00 | 40 | 1006.5 |
| 20260503182159 | 70 | 7 | 0.0 | 7.0 | 0.00 | 0.00 | 0.00 | 42 | 1006.5 |
| 20260503181958 | 70 | 250 | 0.0 | 7.0 | 0.00 | 0.00 | 0.00 | 38 | 1006.5 |
| 20260503181859 | 70 | 272 | 0.0 | 7.0 | 0.00 | 0.00 | 0.00 | 40 | 1006.6 |
| 20260503181800 | 70 | 276 | 0.0 | 7.0 | 0.00 | 0.00 | 0.00 | 39 | 1006.5 |
| 20260503181556 | 70 | 237 | 0.0 | 7.0 | 0.00 | 0.00 | 0.00 | 40 | 1006.5 |
| 20260503181355 | 70 | 237 | 0.0 | 7.0 | 0.00 | 0.00 | 0.00 | 41 | 1006.6 |
| 20260503181145 | 70 | 245 | 0.0 | 7.0 | 0.00 | 0.00 | 0.00 | 43 | 1006.6 |
| 20260503181031 | 70 | 245 | 0.0 | 7.0 | 0.00 | 0.00 | 0.00 | 40 | 1006.8 |
| 20260503180844 | 70 | 252 | 0.0 | 7.0 | 0.00 | 0.00 | 0.00 | 40 | 1006.8 |
| 20260503180731 | 70 | 286 | 0.0 | 5.0 | 0.00 | 0.00 | 0.00 | 42 | 1006.7 |
| 20260503180530 | 70 | 28 | 0.0 | 5.0 | 0.00 | 0.00 | 0.00 | 42 | 1006.6 |
| 20260503180348 | 70 | 28 | 0.0 | 5.0 | 0.00 | 0.00 | 0.00 | 42 | 1006.7 |
| 20260503180330 | 70 | 28 | 0.0 | 5.0 | 0.00 | 0.00 | 0.00 | 42 | 1006.6 |
| 20260503175904 | 70 | 25 | 0.0 | 9.0 | 0.00 | 0.00 | 0.00 | 41 | 1006.7 |
| 20260503175834 | 70 | 25 | 0.0 | 9.0 | 0.00 | 0.00 | 0.00 | 41 | 1006.8 |
| 20260503175707 | 70 | 0 | 0.0 | 9.0 | 0.00 | 0.00 | 0.00 | 40 | 1006.7 |
| 20260503175503 | 70 | 224 | 0.0 | 9.0 | 0.00 | 0.00 | 0.00 | 43 | 1006.8 |
| 20260503175355 | 70 | 357 | 0.0 | 9.0 | 0.00 | 0.00 | 0.00 | 43 | 1006.6 |
| 20260503175330 | 70 | 55 | 0.0 | 9.0 | 0.00 | 0.00 | 0.00 | 43 | 1006.6 |
| 20260503175100 | 70 | 45 | 0.0 | 9.0 | 0.00 | 0.00 | 0.00 | 41 | 1006.7 |
| 20260503174900 | 70 | 214 | 0.0 | 7.0 | 0.00 | 0.00 | 0.00 | 41 | 1006.7 |
| 20260503174829 | 70 | 190 | 0.0 | 7.0 | 0.00 | 0.00 | 0.00 | 42 | 1006.7 |
| 20260503174756 | 70 | 224 | 0.0 | 7.0 | 0.00 | 0.00 | 0.00 | 41 | 1006.8 |
| 20260503174501 | 70 | 272 | 0.0 | 7.0 | 0.00 | 0.00 | 0.00 | 45 | 1006.8 |
| 20260503174330 | 70 | 7 | 0.0 | 7.0 | 0.00 | 0.00 | 0.00 | 46 | 1006.8 |
| 20260503174300 | 69 | 7 | 0.0 | 7.0 | 0.00 | 0.00 | 0.00 | 42 | 1006.8 |
| 20260503174048 | 69 | 272 | 0.0 | 7.0 | 0.00 | 0.00 | 0.00 | 39 | 1006.8 |
| 20260503173835 | 69 | 272 | 0.0 | 7.0 | 0.00 | 0.00 | 0.00 | 39 | 1006.7 |
| 20260503173830 | 69 | 258 | 0.0 | 7.0 | 0.00 | 0.00 | 0.00 | 39 | 1006.7 |
| 20260503173635 | 69 | 343 | 0.0 | 7.0 | 0.00 | 0.00 | 0.00 | 41 | 1006.7 |
| 20260503173439 | 69 | 238 | 0.0 | 4.0 | 0.00 | 0.00 | 0.00 | 45 | 1006.8 |
| 20260503173434 | 69 | 87 | 0.0 | 5.0 | 0.00 | 0.00 | 0.00 | 45 | 1006.8 |
| 20260503173333 | 69 | 42 | 0.0 | 5.0 | 0.00 | 0.00 | 0.00 | 45 | 1006.7 |
| 20260503173034 | 68 | 268 | 0.0 | 10.0 | 0.00 | 0.00 | 0.00 | 47 | 1006.9 |
| 20260503172830 | 68 | 268 | 0.0 | 10.0 | 0.00 | 0.00 | 0.00 | 47 | 1006.8 |
| 20260503172630 | 68 | 268 | 0.0 | 11.0 | 0.00 | 0.00 | 0.00 | 47 | 1006.8 |
| 20260503172430 | 68 | 268 | 0.0 | 11.0 | 0.00 | 0.00 | 0.00 | 47 | 1006.7 |
| 20260503172332 | 68 | 268 | 0.0 | 11.0 | 0.00 | 0.00 | 0.00 | 47 | 1006.7 |
| 20260503172223 | 68 | 237 | 0.0 | 11.0 | 0.00 | 0.00 | 0.00 | 47 | 1006.8 |
| 20260503172127 | 68 | 257 | 0.0 | 11.0 | 0.00 | 0.00 | 0.00 | 45 | 1006.8 |
| 20260503172103 | 68 | 235 | 0.0 | 11.0 | 0.00 | 0.00 | 0.00 | 44 | 1007.0 |
| 20260503171806 | 68 | 254 | 0.0 | 6.0 | 0.00 | 0.00 | 0.00 | 45 | 1006.8 |
| 20260503171707 | 69 | 111 | 0.0 | 4.0 | 0.00 | 0.00 | 0.00 | 48 | 1006.8 |
| 20260503171406 | 69 | 266 | 0.0 | 7.0 | 0.00 | 0.00 | 0.00 | 47 | 1006.9 |
| 20260503171335 | 69 | 257 | 0.0 | 7.0 | 0.00 | 0.00 | 0.00 | 47 | 1006.9 |
| 20260503171207 | 69 | 233 | 0.0 | 7.0 | 0.00 | 0.00 | 0.00 | 43 | 1006.9 |
| 20260503171056 | 69 | 234 | 0.0 | 7.0 | 0.00 | 0.00 | 0.00 | 43 | 1007.0 |
| 20260503171040 | 69 | 234 | 0.0 | 7.0 | 0.00 | 0.00 | 0.00 | 43 | 1006.9 |
| 20260503171013 | 69 | 234 | 0.0 | 7.0 | 0.00 | 0.00 | 0.00 | 43 | 1007.0 |
| 20260503170604 | 69 | 234 | 0.0 | 7.0 | 0.00 | 0.00 | 0.00 | 43 | 1006.9 |
| 20260503170407 | 69 | 268 | 0.0 | 7.0 | 0.00 | 0.00 | 0.00 | 43 | 1006.9 |
| 20260503170307 | 68 | 234 | 0.0 | 6.0 | 0.00 | 0.00 | 0.00 | 45 | 1007.0 |
| 20260503170207 | 68 | 234 | 0.0 | 6.0 | 0.00 | 0.00 | 0.00 | 45 | 1006.9 |
| 20260503160136 | 67 | 188 | 0.0 | 5.0 | 0.00 | 0.00 | 0.00 | 45 | 1006.7 |
| 20260503160128 | 67 | 17 | 0.0 | 7.0 | 0.00 | 0.00 | 0.00 | 46 | 1006.7 |
| 20260503150849 | 66 | 16 | 0.0 | 5.0 | 0.00 | 0.00 | 0.00 | 49 | 1006.4 |
| 20260503150748 | 66 | 14 | 0.0 | 6.0 | 0.00 | 0.00 | 0.00 | 49 | 1006.4 |
| 20260503150650 | 66 | 13 | 0.0 | 6.0 | 0.00 | 0.00 | 0.00 | 48 | 1006.3 |
| 20260503150453 | 66 | 357 | 0.0 | 6.0 | 0.00 | 0.00 | 0.00 | 50 | 1006.4 |
| 20260503150251 | 65 | 52 | 0.0 | 6.0 | 0.00 | 0.00 | 0.00 | 48 | 1006.4 |
| 20260503150104 | 65 | 172 | 0.0 | 6.0 | 0.00 | 0.00 | 0.00 | 48 | 1006.4 |
| 20260503140149 | 62 | 31 | 0.0 | 3.0 | 0.00 | 0.00 | 0.00 | 56 | 1006.2 |
| 20260503131331 | 56 | 206 | 0.0 | 3.0 | 0.00 | 0.00 | 0.00 | 59 | 1005.6 |
| 20260503131132 | 56 | 228 | 0.0 | 5.0 | 0.00 | 0.00 | 0.00 | 58 | 1005.6 |
| 20260503130932 | 56 | 228 | 0.0 | 5.0 | 0.00 | 0.00 | 0.00 | 57 | 1005.5 |
| 20260503130730 | 56 | 224 | 0.0 | 5.0 | 0.00 | 0.00 | 0.00 | 59 | 1005.6 |
| 20260503130633 | 56 | 223 | 0.0 | 5.0 | 0.00 | 0.00 | 0.00 | 59 | 1005.6 |
| 20260503130533 | 55 | 223 | 0.0 | 5.0 | 0.00 | 0.00 | 0.00 | 59 | 1005.5 |
| 20260503130330 | 55 | 223 | 0.0 | 5.0 | 0.00 | 0.00 | 0.00 | 59 | 1005.5 |
| 20260503130138 | 55 | 233 | 0.0 | 3.0 | 0.00 | 0.00 | 0.00 | 59 | 1005.4 |
| 20260503130129 | 55 | 233 | 0.0 | 3.0 | 0.00 | 0.00 | 0.00 | 59 | 1005.5 |
| 20260503110706 | 53 | 189 | 0.0 | 5.0 | 0.00 | 0.00 | 0.00 | 55 | 1004.2 |
| 20260503110606 | 53 | 190 | 0.0 | 6.0 | 0.00 | 0.00 | 0.00 | 55 | 1004.2 |
| 20260503110508 | 53 | 199 | 0.0 | 6.0 | 0.00 | 0.00 | 0.00 | 55 | 1004.2 |
| 20260503110308 | 53 | 209 | 0.0 | 6.0 | 0.00 | 0.00 | 0.00 | 56 | 1004.2 |
| 20260503110212 | 54 | 182 | 0.0 | 6.0 | 0.00 | 0.00 | 0.00 | 55 | 1004.2 |
| 20260503110107 | 54 | 182 | 0.0 | 6.0 | 0.00 | 0.00 | 0.00 | 55 | 1004.2 |
| 20260503100234 | 56 | 217 | 0.0 | 9.0 | 0.00 | 0.00 | 0.00 | 51 | 1004.5 |
| 20260503090459 | 57 | 192 | 0.0 | 15.0 | 0.00 | 0.00 | 0.00 | 49 | 1005.0 |
| 20260503090344 | 57 | 189 | 0.0 | 15.0 | 0.00 | 0.00 | 0.00 | 49 | 1005.0 |
| 20260503090319 | 57 | 200 | 0.0 | 15.0 | 0.00 | 0.00 | 0.00 | 48 | 1005.1 |
| 20260503081551 | 58 | 216 | 0.0 | 13.0 | 0.00 | 0.00 | 0.00 | 48 | 1005.1 |
| 20260503081527 | 58 | 196 | 0.0 | 13.0 | 0.00 | 0.00 | 0.00 | 48 | 1005.2 |
| 20260503081304 | 58 | 214 | 0.0 | 13.0 | 0.00 | 0.00 | 0.00 | 48 | 1005.2 |
| 20260503081103 | 58 | 195 | 0.0 | 13.0 | 0.00 | 0.00 | 0.00 | 48 | 1005.2 |
| 20260503081051 | 58 | 195 | 0.0 | 13.0 | 0.00 | 0.00 | 0.00 | 48 | 1005.2 |
| 20260503080957 | 58 | 190 | 0.0 | 13.0 | 0.00 | 0.00 | 0.00 | 48 | 1005.3 |
| 20260503080702 | 58 | 200 | 0.0 | 10.0 | 0.00 | 0.00 | 0.00 | 48 | 1005.3 |
| 20260503080555 | 58 | 200 | 0.0 | 10.0 | 0.00 | 0.00 | 0.00 | 48 | 1005.3 |
| 20260503080502 | 58 | 196 | 0.0 | 10.0 | 0.00 | 0.00 | 0.00 | 48 | 1005.2 |
| 20260503080250 | 58 | 192 | 0.0 | 10.0 | 0.00 | 0.00 | 0.00 | 48 | 1005.3 |
| 20260503072832 | 59 | 238 | 0.0 | 10.0 | 0.00 | 0.00 | 0.00 | 49 | 1005.8 |
| 20260503072729 | 59 | 145 | 0.0 | 10.0 | 0.00 | 0.00 | 0.00 | 49 | 1005.9 |
| 20260503072549 | 59 | 183 | 0.0 | 10.0 | 0.00 | 0.00 | 0.00 | 49 | 1005.9 |
| 20260503072429 | 59 | 173 | 0.0 | 10.0 | 0.00 | 0.00 | 0.00 | 50 | 1005.9 |
| 20260503072230 | 59 | 207 | 0.0 | 10.0 | 0.00 | 0.00 | 0.00 | 50 | 1006.0 |
| 20260503072050 | 59 | 189 | 0.0 | 10.0 | 0.00 | 0.00 | 0.00 | 50 | 1006.0 |
| 20260503072030 | 59 | 190 | 0.0 | 10.0 | 0.00 | 0.00 | 0.00 | 50 | 1006.1 |
| 20260503071830 | 59 | 203 | 0.0 | 11.0 | 0.00 | 0.00 | 0.00 | 50 | 1006.1 |
| 20260503071631 | 60 | 178 | 0.0 | 11.0 | 0.00 | 0.00 | 0.00 | 50 | 1006.2 |
| 20260503071551 | 60 | 180 | 0.0 | 11.0 | 0.00 | 0.00 | 0.00 | 50 | 1006.2 |
| 20260503071424 | 60 | 180 | 0.0 | 11.0 | 0.00 | 0.00 | 0.00 | 49 | 1006.3 |
| 20260503071343 | 60 | 204 | 0.0 | 12.0 | 0.00 | 0.00 | 0.00 | 49 | 1006.3 |
| 20260503071338 | 60 | 221 | 0.0 | 12.0 | 0.00 | 0.00 | 0.00 | 49 | 1006.3 |
| 20260503071322 | 60 | 169 | 0.0 | 11.0 | 0.00 | 0.00 | 0.00 | 49 | 1006.2 |
| 20260503070820 | 60 | 192 | 0.0 | 12.0 | 0.00 | 0.00 | 0.00 | 49 | 1006.3 |
| 20260503070619 | 60 | 200 | 0.0 | 12.0 | 0.00 | 0.00 | 0.00 | 50 | 1006.2 |
| 20260503070549 | 60 | 213 | 0.0 | 12.0 | 0.00 | 0.00 | 0.00 | 50 | 1006.2 |
| 20260503070419 | 60 | 189 | 0.0 | 12.0 | 0.00 | 0.00 | 0.00 | 50 | 1006.3 |
| 20260503070216 | 60 | 202 | 0.0 | 13.0 | 0.00 | 0.00 | 0.00 | 50 | 1006.4 |
| 20260503060152 | 60 | 283 | 0.0 | 14.0 | 0.00 | 0.00 | 0.00 | 55 | 1007.4 |
| 20260503054743 | 59 | 303 | 0.0 | 13.0 | 0.00 | 0.00 | 0.00 | 52 | 1008.0 |
| 20260503054543 | 59 | 216 | 0.0 | 10.0 | 0.00 | 0.00 | 0.00 | 51 | 1008.1 |
| 20260503054505 | 59 | 216 | 0.0 | 7.0 | 0.00 | 0.00 | 0.00 | 52 | 1008.1 |
| 20260503054344 | 58 | 234 | 0.0 | 5.0 | 0.00 | 0.00 | 0.00 | 51 | 1008.2 |
| 20260503054240 | 58 | 234 | 0.0 | 5.0 | 0.00 | 0.00 | 0.00 | 51 | 1008.3 |
| 20260503054228 | 58 | 234 | 0.0 | 5.0 | 0.00 | 0.00 | 0.00 | 51 | 1008.3 |
| 20260503053918 | 58 | 233 | 0.0 | 5.0 | 0.00 | 0.00 | 0.00 | 51 | 1008.2 |
| 20260503053710 | 58 | 240 | 0.0 | 4.0 | 0.00 | 0.00 | 0.00 | 51 | 1008.1 |
| 20260503053506 | 58 | 255 | 0.0 | 4.0 | 0.00 | 0.00 | 0.00 | 51 | 1007.9 |
| 20260503053408 | 58 | 217 | 0.0 | 4.0 | 0.00 | 0.00 | 0.00 | 51 | 1008.0 |
| 20260503053251 | 58 | 213 | 0.0 | 7.0 | 0.00 | 0.00 | 0.00 | 51 | 1008.0 |
| 20260503053230 | 58 | 217 | 0.0 | 7.0 | 0.00 | 0.00 | 0.00 | 51 | 1008.1 |
| 20260503052906 | 58 | 214 | 0.0 | 7.0 | 0.00 | 0.00 | 0.00 | 51 | 1008.1 |
| 20260503052708 | 58 | 219 | 0.0 | 7.0 | 0.00 | 0.00 | 0.00 | 50 | 1008.0 |
| 20260503052607 | 58 | 227 | 0.0 | 7.0 | 0.00 | 0.00 | 0.00 | 51 | 1008.0 |
| 20260503052503 | 58 | 227 | 0.0 | 7.0 | 0.00 | 0.00 | 0.00 | 51 | 1008.0 |
| 20260503052301 | 58 | 214 | 0.0 | 10.0 | 0.00 | 0.00 | 0.00 | 50 | 1008.1 |
| 20260503052240 | 58 | 212 | 0.0 | 10.0 | 0.00 | 0.00 | 0.00 | 50 | 1008.0 |
| 20260503052219 | 58 | 212 | 0.0 | 10.0 | 0.00 | 0.00 | 0.00 | 51 | 1008.1 |
| 20260503051905 | 58 | 210 | 0.0 | 10.0 | 0.00 | 0.00 | 0.00 | 51 | 1008.1 |
| 20260503051648 | 58 | 216 | 0.0 | 10.0 | 0.00 | 0.00 | 0.00 | 51 | 1008.1 |
| 20260503051449 | 58 | 214 | 0.0 | 10.0 | 0.00 | 0.00 | 0.00 | 51 | 1008.2 |
| 20260503051443 | 58 | 216 | 0.0 | 10.0 | 0.00 | 0.00 | 0.00 | 51 | 1008.1 |
| 20260503051242 | 58 | 214 | 0.0 | 10.0 | 0.00 | 0.00 | 0.00 | 52 | 1008.1 |
| 20260503051042 | 57 | 193 | 0.0 | 10.0 | 0.00 | 0.00 | 0.00 | 52 | 1008.1 |
| 20260503050948 | 57 | 189 | 0.0 | 10.0 | 0.00 | 0.00 | 0.00 | 52 | 1008.1 |
| 20260503050941 | 57 | 161 | 0.0 | 9.0 | 0.00 | 0.00 | 0.00 | 52 | 1008.1 |
| 20260503050643 | 57 | 190 | 0.0 | 3.0 | 0.00 | 0.00 | 0.00 | 52 | 1007.9 |
| 20260503050448 | 57 | 179 | 0.0 | 3.0 | 0.00 | 0.00 | 0.00 | 52 | 1008.0 |
| 20260503050435 | 57 | 179 | 0.0 | 3.0 | 0.00 | 0.00 | 0.00 | 52 | 1007.9 |
| 20260503050204 | 57 | 179 | 0.0 | 3.0 | 0.00 | 0.00 | 0.00 | 52 | 1007.9 |
| 20260503050010 | 58 | 182 | 0.0 | 3.0 | 0.00 | 0.00 | 0.00 | 52 | 1007.9 |
| 20260503045936 | 58 | 182 | 0.0 | 3.0 | 0.00 | 0.00 | 0.00 | 52 | 1007.9 |
| 20260503045804 | 58 | 182 | 0.0 | 3.0 | 0.00 | 0.00 | 0.00 | 51 | 1007.9 |
| 20260503045606 | 58 | 188 | 0.0 | 3.0 | 0.00 | 0.00 | 0.00 | 51 | 1007.9 |
| 20260503045432 | 58 | 188 | 0.0 | 3.0 | 0.00 | 0.00 | 0.00 | 51 | 1007.9 |
| 20260503045405 | 58 | 188 | 0.0 | 3.0 | 0.00 | 0.00 | 0.00 | 51 | 1008.0 |
| 20260503045305 | 58 | 188 | 0.0 | 4.0 | 0.00 | 0.00 | 0.00 | 51 | 1008.0 |
| 20260503044937 | 58 | 176 | 0.0 | 4.0 | 0.00 | 0.00 | 0.00 | 51 | 1008.0 |
| 20260503044736 | 58 | 175 | 0.0 | 4.0 | 0.00 | 0.00 | 0.00 | 51 | 1008.0 |
| 20260503044538 | 58 | 179 | 0.0 | 4.0 | 0.00 | 0.00 | 0.00 | 51 | 1008.0 |
| 20260503044436 | 58 | 180 | 0.0 | 4.0 | 0.00 | 0.00 | 0.00 | 51 | 1008.0 |
| 20260503044336 | 58 | 180 | 0.0 | 4.0 | 0.00 | 0.00 | 0.00 | 51 | 1008.1 |
| 20260503044139 | 58 | 204 | 0.0 | 6.0 | 0.00 | 0.00 | 0.00 | 51 | 1008.1 |
| 20260503043935 | 58 | 210 | 0.0 | 6.0 | 0.00 | 0.00 | 0.00 | 51 | 1008.2 |
| 20260503043734 | 58 | 210 | 0.0 | 6.0 | 0.00 | 0.00 | 0.00 | 51 | 1008.2 |
| 20260503043537 | 58 | 212 | 0.0 | 6.0 | 0.00 | 0.00 | 0.00 | 51 | 1008.2 |
| 20260503043438 | 58 | 212 | 0.0 | 6.0 | 0.00 | 0.00 | 0.00 | 51 | 1008.2 |
| 20260503043434 | 58 | 212 | 0.0 | 6.0 | 0.00 | 0.00 | 0.00 | 51 | 1008.2 |
| 20260503043231 | 58 | 189 | 0.0 | 6.0 | 0.00 | 0.00 | 0.00 | 51 | 1008.4 |
| 20260503043213 | 58 | 206 | 0.0 | 6.0 | 0.00 | 0.00 | 0.00 | 51 | 1008.3 |
| 20260503043145 | 58 | 189 | 0.0 | 6.0 | 0.00 | 0.00 | 0.00 | 51 | 1008.4 |
| 20260503042734 | 58 | 189 | 0.0 | 5.0 | 0.00 | 0.00 | 0.00 | 51 | 1008.4 |
| 20260503042534 | 58 | 185 | 0.0 | 5.0 | 0.00 | 0.00 | 0.00 | 51 | 1008.4 |
| 20260503042433 | 58 | 207 | 0.0 | 4.0 | 0.00 | 0.00 | 0.00 | 51 | 1008.4 |
| 20260503042333 | 58 | 207 | 0.0 | 4.0 | 0.00 | 0.00 | 0.00 | 51 | 1008.4 |
| 20260503042224 | 58 | 166 | 0.0 | 4.0 | 0.00 | 0.00 | 0.00 | 51 | 1008.4 |
| 20260503042207 | 58 | 169 | 0.0 | 4.0 | 0.00 | 0.00 | 0.00 | 51 | 1008.4 |
| 20260503041932 | 58 | 166 | 0.0 | 4.0 | 0.00 | 0.00 | 0.00 | 51 | 1008.4 |
| 20260503041827 | 58 | 172 | 0.0 | 4.0 | 0.00 | 0.00 | 0.00 | 50 | 1008.4 |
| 20260503041530 | 58 | 172 | 0.0 | 4.0 | 0.00 | 0.00 | 0.00 | 50 | 1008.4 |
| 20260503041435 | 58 | 178 | 0.0 | 4.0 | 0.00 | 0.00 | 0.00 | 50 | 1008.4 |
| 20260503041330 | 58 | 178 | 0.0 | 4.0 | 0.00 | 0.00 | 0.00 | 50 | 1008.5 |
| 20260503041215 | 58 | 168 | 0.0 | 3.0 | 0.00 | 0.00 | 0.00 | 50 | 1008.5 |
| 20260503041206 | 58 | 168 | 0.0 | 3.0 | 0.00 | 0.00 | 0.00 | 50 | 1008.5 |
| 20260503040904 | 58 | 168 | 0.0 | 3.0 | 0.00 | 0.00 | 0.00 | 50 | 1008.5 |
| 20260503040657 | 58 | 164 | 0.0 | 3.0 | 0.00 | 0.00 | 0.00 | 50 | 1008.5 |
| 20260503040558 | 58 | 159 | 0.0 | 3.0 | 0.00 | 0.00 | 0.00 | 49 | 1008.6 |
| 20260503040433 | 58 | 159 | 0.0 | 3.0 | 0.00 | 0.00 | 0.00 | 49 | 1008.6 |
| 20260503040259 | 58 | 159 | 0.0 | 3.0 | 0.00 | 0.00 | 0.00 | 49 | 1008.6 |
| 20260503040228 | 59 | 148 | 0.0 | 3.0 | 0.00 | 0.00 | 0.00 | 49 | 1008.7 |
| 20260503040204 | 59 | 148 | 0.0 | 3.0 | 0.00 | 0.00 | 0.00 | 49 | 1008.7 |
| 20260503035855 | 59 | 148 | 0.0 | 3.0 | 0.00 | 0.00 | 0.00 | 49 | 1008.7 |
| 20260503035652 | 59 | 183 | 0.0 | 2.0 | 0.00 | 0.00 | 0.00 | 49 | 1008.7 |
| 20260503035433 | 59 | 183 | 0.0 | 2.0 | 0.00 | 0.00 | 0.00 | 49 | 1008.8 |
| 20260503035252 | 59 | 183 | 0.0 | 2.0 | 0.00 | 0.00 | 0.00 | 48 | 1008.8 |
| 20260503035052 | 59 | 183 | 0.0 | 2.0 | 0.00 | 0.00 | 0.00 | 48 | 1008.9 |
| 20260503034943 | 59 | 183 | 0.0 | 2.0 | 0.00 | 0.00 | 0.00 | 48 | 1008.9 |
| 20260503034932 | 59 | 183 | 0.0 | 2.0 | 0.00 | 0.00 | 0.00 | 48 | 1008.9 |
| 20260503034636 | 60 | 183 | 0.0 | 2.0 | 0.00 | 0.00 | 0.00 | 47 | 1008.9 |
| 20260503034436 | 60 | 183 | 0.0 | 2.0 | 0.00 | 0.00 | 0.00 | 47 | 1008.9 |
| 20260503034233 | 60 | 183 | 0.0 | 3.0 | 0.00 | 0.00 | 0.00 | 47 | 1009.0 |
| 20260503034224 | 60 | 183 | 0.0 | 4.0 | 0.00 | 0.00 | 0.00 | 47 | 1009.0 |
| 20260503034157 | 60 | 183 | 0.0 | 3.0 | 0.00 | 0.00 | 0.00 | 47 | 1009.0 |
| 20260503033830 | 60 | 183 | 0.0 | 4.0 | 0.00 | 0.00 | 0.00 | 46 | 1009.1 |
| 20260503033629 | 60 | 188 | 0.0 | 4.0 | 0.00 | 0.00 | 0.00 | 46 | 1009.1 |
| 20260503033432 | 60 | 188 | 0.0 | 4.0 | 0.00 | 0.00 | 0.00 | 46 | 1009.1 |
| 20260503033426 | 60 | 188 | 0.0 | 4.0 | 0.00 | 0.00 | 0.00 | 46 | 1009.2 |
| 20260503033323 | 60 | 189 | 0.0 | 4.0 | 0.00 | 0.00 | 0.00 | 46 | 1009.2 |
| 20260503033227 | 60 | 192 | 0.0 | 4.0 | 0.00 | 0.00 | 0.00 | 46 | 1009.3 |
| 20260503033153 | 60 | 192 | 0.0 | 4.0 | 0.00 | 0.00 | 0.00 | 46 | 1009.3 |
| 20260503032821 | 60 | 192 | 0.0 | 3.0 | 0.00 | 0.00 | 0.00 | 46 | 1009.2 |
| 20260503032620 | 60 | 217 | 0.0 | 2.0 | 0.00 | 0.00 | 0.00 | 45 | 1009.2 |
| 20260503032422 | 61 | 217 | 0.0 | 2.0 | 0.00 | 0.00 | 0.00 | 46 | 1009.3 |
| 20260503032239 | 61 | 217 | 0.0 | 4.0 | 0.00 | 0.00 | 0.00 | 45 | 1009.4 |
| 20260503032227 | 61 | 217 | 0.0 | 2.0 | 0.00 | 0.00 | 0.00 | 45 | 1009.4 |
| 20260503032153 | 61 | 217 | 0.0 | 2.0 | 0.00 | 0.00 | 0.00 | 45 | 1009.4 |
| 20260503031813 | 61 | 217 | 0.0 | 4.0 | 0.00 | 0.00 | 0.00 | 46 | 1009.5 |
| 20260503031705 | 61 | 217 | 0.0 | 4.0 | 0.00 | 0.00 | 0.00 | 45 | 1009.5 |
| 20260503031405 | 61 | 217 | 0.0 | 6.0 | 0.00 | 0.00 | 0.00 | 45 | 1009.4 |
| 20260503031225 | 61 | 219 | 0.0 | 6.0 | 0.00 | 0.00 | 0.00 | 46 | 1009.6 |
| 20260503031220 | 61 | 217 | 0.0 | 6.0 | 0.00 | 0.00 | 0.00 | 45 | 1009.5 |
| 20260503031151 | 61 | 219 | 0.0 | 6.0 | 0.00 | 0.00 | 0.00 | 45 | 1009.6 |
| 20260503030800 | 61 | 219 | 0.0 | 6.0 | 0.00 | 0.00 | 0.00 | 46 | 1009.6 |
| 20260503030537 | 61 | 219 | 0.0 | 6.0 | 0.00 | 0.00 | 0.00 | 45 | 1009.6 |
| 20260503030435 | 61 | 207 | 0.0 | 4.0 | 0.00 | 0.00 | 0.00 | 45 | 1009.6 |
| 20260503030337 | 61 | 207 | 0.0 | 4.0 | 0.00 | 0.00 | 0.00 | 45 | 1009.7 |
| 20260503030136 | 61 | 207 | 0.0 | 3.0 | 0.00 | 0.00 | 0.00 | 46 | 1009.7 |
| 20260503030037 | 61 | 207 | 0.0 | 3.0 | 0.00 | 0.00 | 0.00 | 45 | 1009.7 |
| 20260503025934 | 61 | 207 | 0.0 | 3.0 | 0.00 | 0.00 | 0.00 | 45 | 1009.7 |
| 20260503025735 | 61 | 207 | 0.0 | 3.0 | 0.00 | 0.00 | 0.00 | 45 | 1009.8 |
| 20260503025535 | 61 | 207 | 0.0 | 4.0 | 0.00 | 0.00 | 0.00 | 46 | 1009.8 |
| 20260503025431 | 61 | 207 | 0.0 | 4.0 | 0.00 | 0.00 | 0.00 | 44 | 1009.8 |
| 20260503025334 | 61 | 207 | 0.0 | 4.0 | 0.00 | 0.00 | 0.00 | 44 | 1009.7 |
| 20260503025138 | 61 | 207 | 0.0 | 4.0 | 0.00 | 0.00 | 0.00 | 45 | 1009.7 |
| 20260503024932 | 61 | 207 | 0.0 | 4.0 | 0.00 | 0.00 | 0.00 | 46 | 1009.9 |
| 20260503024734 | 62 | 65 | 0.0 | 4.0 | 0.00 | 0.00 | 0.00 | 45 | 1009.9 |
| 20260503024535 | 62 | 219 | 0.0 | 3.0 | 0.00 | 0.00 | 0.00 | 45 | 1010.0 |
| 20260503024432 | 62 | 219 | 0.0 | 3.0 | 0.00 | 0.00 | 0.00 | 44 | 1010.1 |
| 20260503024333 | 62 | 219 | 0.0 | 3.0 | 0.00 | 0.00 | 0.00 | 44 | 1010.1 |
| 20260503024134 | 62 | 219 | 0.0 | 4.0 | 0.00 | 0.00 | 0.00 | 44 | 1010.2 |
| 20260503023936 | 62 | 220 | 0.0 | 4.0 | 0.00 | 0.00 | 0.00 | 44 | 1010.2 |
| 20260503023836 | 62 | 219 | 0.0 | 5.0 | 0.00 | 0.00 | 0.00 | 44 | 1010.3 |
| 20260503023536 | 62 | 219 | 0.0 | 5.0 | 0.00 | 0.00 | 0.00 | 44 | 1010.3 |
| 20260503023436 | 62 | 219 | 0.0 | 5.0 | 0.00 | 0.00 | 0.00 | 45 | 1010.2 |
| 20260503023336 | 62 | 219 | 0.0 | 5.0 | 0.00 | 0.00 | 0.00 | 44 | 1010.3 |
| 20260503023137 | 62 | 257 | 0.0 | 5.0 | 0.00 | 0.00 | 0.00 | 44 | 1010.3 |
| 20260503022936 | 62 | 258 | 0.0 | 5.0 | 0.00 | 0.00 | 0.00 | 44 | 1010.3 |
| 20260503022738 | 62 | 228 | 0.0 | 10.0 | 0.00 | 0.00 | 0.00 | 44 | 1010.3 |
| 20260503022537 | 62 | 227 | 0.0 | 10.0 | 0.00 | 0.00 | 0.00 | 44 | 1010.4 |
| 20260503022435 | 62 | 228 | 0.0 | 10.0 | 0.00 | 0.00 | 0.00 | 44 | 1010.4 |
| 20260503022337 | 62 | 228 | 0.0 | 10.0 | 0.00 | 0.00 | 0.00 | 44 | 1010.3 |
| 20260503022239 | 62 | 223 | 0.0 | 10.0 | 0.00 | 0.00 | 0.00 | 44 | 1010.4 |
| 20260503021940 | 62 | 223 | 0.0 | 10.0 | 0.00 | 0.00 | 0.00 | 44 | 1010.4 |
| 20260503021737 | 62 | 234 | 0.0 | 5.0 | 0.00 | 0.00 | 0.00 | 44 | 1010.3 |
| 20260503021720 | 62 | 240 | 0.0 | 10.0 | 0.00 | 0.00 | 0.00 | 45 | 1010.4 |
| 20260503021704 | 62 | 240 | 0.0 | 5.0 | 0.00 | 0.00 | 0.00 | 45 | 1010.5 |
| 20260503021341 | 62 | 240 | 0.0 | 10.0 | 0.00 | 0.00 | 0.00 | 45 | 1010.4 |
| 20260503021140 | 62 | 238 | 0.0 | 10.0 | 0.00 | 0.00 | 0.00 | 44 | 1010.5 |
| 20260503020936 | 62 | 257 | 0.0 | 10.0 | 0.00 | 0.00 | 0.00 | 45 | 1010.4 |
| 20260503020731 | 62 | 245 | 0.0 | 10.0 | 0.00 | 0.00 | 0.00 | 44 | 1010.4 |
| 20260503020724 | 62 | 202 | 0.0 | 6.0 | 0.00 | 0.00 | 0.00 | 45 | 1010.5 |
| 20260503020700 | 62 | 217 | 0.0 | 10.0 | 0.00 | 0.00 | 0.00 | 44 | 1010.5 |
| 20260503020332 | 62 | 202 | 0.0 | 6.0 | 0.00 | 0.00 | 0.00 | 44 | 1010.4 |
| 20260503020131 | 62 | 202 | 0.0 | 6.0 | 0.00 | 0.00 | 0.00 | 44 | 1010.4 |
| 20260503015939 | 62 | 202 | 0.0 | 6.0 | 0.00 | 0.00 | 0.00 | 44 | 1010.4 |
| 20260503015932 | 62 | 202 | 0.0 | 6.0 | 0.00 | 0.00 | 0.00 | 44 | 1010.5 |
| 20260503015753 | 63 | 203 | 0.0 | 6.0 | 0.00 | 0.00 | 0.00 | 45 | 1010.5 |
| 20260503015732 | 62 | 202 | 0.0 | 6.0 | 0.00 | 0.00 | 0.00 | 44 | 1010.3 |
| 20260503015714 | 63 | 207 | 0.0 | 6.0 | 0.00 | 0.00 | 0.00 | 44 | 1010.5 |
| 20260503015305 | 63 | 209 | 0.0 | 6.0 | 0.00 | 0.00 | 0.00 | 44 | 1010.4 |
| 20260503015104 | 63 | 207 | 0.0 | 6.0 | 0.00 | 0.00 | 0.00 | 44 | 1010.4 |
| 20260503014936 | 63 | 207 | 0.0 | 6.0 | 0.00 | 0.00 | 0.00 | 44 | 1010.4 |
| 20260503014846 | 63 | 207 | 0.0 | 6.0 | 0.00 | 0.00 | 0.00 | 43 | 1010.4 |
| 20260503014649 | 63 | 196 | 0.0 | 5.0 | 0.00 | 0.00 | 0.00 | 43 | 1010.4 |
| 20260503014434 | 63 | 221 | 0.0 | 5.0 | 0.00 | 0.00 | 0.00 | 43 | 1010.5 |
| 20260503014239 | 63 | 259 | 0.0 | 6.0 | 0.00 | 0.00 | 0.00 | 43 | 1010.6 |
| 20260503014033 | 63 | 259 | 0.0 | 9.0 | 0.00 | 0.00 | 0.00 | 44 | 1010.7 |
| 20260503013944 | 63 | 259 | 0.0 | 9.0 | 0.00 | 0.00 | 0.00 | 43 | 1010.6 |
| 20260503013935 | 63 | 259 | 0.0 | 9.0 | 0.00 | 0.00 | 0.00 | 43 | 1010.7 |
| 20260503013618 | 63 | 259 | 0.0 | 9.0 | 0.00 | 0.00 | 0.00 | 43 | 1010.7 |
| 20260503013432 | 63 | 259 | 0.0 | 17.0 | 0.00 | 0.00 | 0.00 | 42 | 1010.7 |
| 20260503013423 | 63 | 252 | 0.0 | 17.0 | 0.00 | 0.00 | 0.00 | 42 | 1010.7 |
| 20260503013207 | 63 | 259 | 0.0 | 17.0 | 0.00 | 0.00 | 0.00 | 42 | 1010.7 |
| 20260503013007 | 63 | 261 | 0.0 | 17.0 | 0.00 | 0.00 | 0.00 | 43 | 1010.6 |
| 20260503012931 | 63 | 279 | 0.0 | 17.0 | 0.00 | 0.00 | 0.00 | 43 | 1010.6 |
| 20260503012806 | 63 | 228 | 0.0 | 17.0 | 0.00 | 0.00 | 0.00 | 42 | 1010.6 |
| 20260503012606 | 63 | 220 | 0.0 | 17.0 | 0.00 | 0.00 | 0.00 | 43 | 1010.6 |
| 20260503012432 | 63 | 213 | 0.0 | 10.0 | 0.00 | 0.00 | 0.00 | 42 | 1010.7 |
| 20260503012401 | 63 | 235 | 0.0 | 10.0 | 0.00 | 0.00 | 0.00 | 42 | 1010.7 |
| 20260503012200 | 63 | 264 | 0.0 | 10.0 | 0.00 | 0.00 | 0.00 | 43 | 1010.7 |
| 20260503012002 | 63 | 254 | 0.0 | 10.0 | 0.00 | 0.00 | 0.00 | 42 | 1010.6 |
| 20260503011935 | 63 | 240 | 0.0 | 10.0 | 0.00 | 0.00 | 0.00 | 42 | 1010.6 |
| 20260503011750 | 63 | 219 | 0.0 | 3.0 | 0.00 | 0.00 | 0.00 | 42 | 1010.7 |
| 20260503011540 | 63 | 220 | 0.0 | 3.0 | 0.00 | 0.00 | 0.00 | 44 | 1010.6 |
| 20260503011434 | 63 | 220 | 0.0 | 3.0 | 0.00 | 0.00 | 0.00 | 43 | 1010.6 |
| 20260503011340 | 63 | 220 | 0.0 | 3.0 | 0.00 | 0.00 | 0.00 | 44 | 1010.6 |
| 20260503011239 | 63 | 220 | 0.0 | 3.0 | 0.00 | 0.00 | 0.00 | 43 | 1010.6 |
| 20260503010944 | 64 | 220 | 0.0 | 3.0 | 0.00 | 0.00 | 0.00 | 40 | 1010.6 |
| 20260503010934 | 64 | 220 | 0.0 | 3.0 | 0.00 | 0.00 | 0.00 | 40 | 1010.5 |
| 20260503010737 | 64 | 220 | 0.0 | 3.0 | 0.00 | 0.00 | 0.00 | 41 | 1010.5 |
| 20260503010722 | 64 | 220 | 0.0 | 3.0 | 0.00 | 0.00 | 0.00 | 41 | 1010.5 |
| 20260503010701 | 64 | 220 | 0.0 | 3.0 | 0.00 | 0.00 | 0.00 | 41 | 1010.5 |
| 20260503010335 | 64 | 220 | 0.0 | 6.0 | 0.00 | 0.00 | 0.00 | 41 | 1010.5 |
| 20260503010136 | 64 | 220 | 0.0 | 9.0 | 0.00 | 0.00 | 0.00 | 41 | 1010.4 |
| 20260503005934 | 64 | 220 | 0.0 | 9.0 | 0.00 | 0.00 | 0.00 | 41 | 1010.4 |
| 20260503005752 | 64 | 220 | 0.0 | 9.0 | 0.00 | 0.00 | 0.00 | 41 | 1010.5 |
| 20260503005735 | 64 | 220 | 0.0 | 9.0 | 0.00 | 0.00 | 0.00 | 41 | 1010.5 |
| 20260503005709 | 64 | 220 | 0.0 | 9.0 | 0.00 | 0.00 | 0.00 | 41 | 1010.5 |
| 20260503005333 | 64 | 219 | 0.0 | 9.0 | 0.00 | 0.00 | 0.00 | 41 | 1010.6 |
| 20260503005135 | 64 | 231 | 0.0 | 4.0 | 0.00 | 0.00 | 0.00 | 42 | 1010.6 |
| 20260503004934 | 64 | 231 | 0.0 | 4.0 | 0.00 | 0.00 | 0.00 | 41 | 1010.5 |
| 20260503004738 | 64 | 231 | 0.0 | 5.0 | 0.00 | 0.00 | 0.00 | 42 | 1010.6 |
| 20260503004727 | 64 | 231 | 0.0 | 5.0 | 0.00 | 0.00 | 0.00 | 41 | 1010.6 |
| 20260503004704 | 64 | 231 | 0.0 | 5.0 | 0.00 | 0.00 | 0.00 | 42 | 1010.6 |
| 20260503004337 | 64 | 231 | 0.0 | 5.0 | 0.00 | 0.00 | 0.00 | 40 | 1010.7 |
| 20260503004135 | 64 | 231 | 0.0 | 5.0 | 0.00 | 0.00 | 0.00 | 40 | 1010.7 |
| 20260503003935 | 64 | 226 | 0.0 | 5.0 | 0.00 | 0.00 | 0.00 | 40 | 1010.6 |
| 20260503003737 | 64 | 237 | 0.0 | 6.0 | 0.00 | 0.00 | 0.00 | 41 | 1010.8 |
| 20260503003727 | 64 | 220 | 0.0 | 6.0 | 0.00 | 0.00 | 0.00 | 41 | 1010.8 |
| 20260503003704 | 64 | 235 | 0.0 | 6.0 | 0.00 | 0.00 | 0.00 | 42 | 1010.8 |
| 20260503003336 | 64 | 220 | 0.0 | 6.0 | 0.00 | 0.00 | 0.00 | 41 | 1010.6 |
| 20260503003135 | 64 | 241 | 0.0 | 6.0 | 0.00 | 0.00 | 0.00 | 42 | 1010.7 |
| 20260503002935 | 63 | 241 | 0.0 | 6.0 | 0.00 | 0.00 | 0.00 | 41 | 1010.7 |
| 20260503002804 | 63 | 234 | 0.0 | 9.0 | 0.00 | 0.00 | 0.00 | 43 | 1010.7 |
| 20260503002735 | 63 | 241 | 0.0 | 6.0 | 0.00 | 0.00 | 0.00 | 42 | 1010.7 |
| 20260503002722 | 64 | 237 | 0.0 | 11.0 | 0.00 | 0.00 | 0.00 | 42 | 1010.8 |
| 20260503002335 | 63 | 237 | 0.0 | 13.0 | 0.00 | 0.00 | 0.00 | 42 | 1010.8 |
| 20260503002136 | 64 | 255 | 0.0 | 13.0 | 0.00 | 0.00 | 0.00 | 43 | 1010.8 |
| 20260503001936 | 64 | 255 | 0.0 | 13.0 | 0.00 | 0.00 | 0.00 | 42 | 1010.9 |
| 20260503001738 | 64 | 245 | 0.0 | 13.0 | 0.00 | 0.00 | 0.00 | 42 | 1011.1 |
| 20260503001725 | 64 | 224 | 0.0 | 13.0 | 0.00 | 0.00 | 0.00 | 39 | 1011.2 |
| 20260503001701 | 64 | 266 | 0.0 | 13.0 | 0.00 | 0.00 | 0.00 | 42 | 1011.1 |
| 20260503001335 | 64 | 244 | 0.0 | 12.0 | 0.00 | 0.00 | 0.00 | 40 | 1011.0 |
| 20260503001137 | 64 | 224 | 0.0 | 20.0 | 0.00 | 0.00 | 0.00 | 40 | 1010.8 |
| 20260503001041 | 64 | 274 | 0.0 | 20.0 | 0.00 | 0.00 | 0.00 | 41 | 1010.8 |
| 20260503000935 | 64 | 274 | 0.0 | 20.0 | 0.00 | 0.00 | 0.00 | 41 | 1010.8 |
| 20260503000738 | 64 | 292 | 0.0 | 20.0 | 0.00 | 0.00 | 0.00 | 42 | 1010.9 |
| 20260503000725 | 65 | 276 | 0.0 | 20.0 | 0.00 | 0.00 | 0.00 | 39 | 1011.4 |
| 20260503000702 | 65 | 0 | 0.0 | 20.0 | 0.00 | 0.00 | 0.00 | 40 | 1010.8 |
| 20260503000335 | 65 | 220 | 0.0 | 20.0 | 0.00 | 0.00 | 0.00 | 39 | 1011.1 |
| 20260503000136 | 65 | 251 | 0.0 | 7.0 | 0.00 | 0.00 | 0.00 | 39 | 1010.8 |
| 20260502235936 | 65 | 206 | 0.0 | 7.0 | 0.00 | 0.00 | 0.00 | 39 | 1010.8 |
| 20260502235742 | 65 | 223 | 0.0 | 6.0 | 0.00 | 0.00 | 0.00 | 39 | 1010.8 |
| 20260502235736 | 65 | 228 | 0.0 | 5.0 | 0.00 | 0.00 | 0.00 | 39 | 1010.7 |
| 20260502235723 | 65 | 219 | 0.0 | 6.0 | 0.00 | 0.00 | 0.00 | 39 | 1010.8 |
| 20260502235701 | 65 | 209 | 0.0 | 6.0 | 0.00 | 0.00 | 0.00 | 39 | 1010.8 |
| 20260502235135 | 65 | 234 | 0.0 | 11.0 | 0.00 | 0.00 | 0.00 | 40 | 1010.7 |
| 20260502234935 | 65 | 231 | 0.0 | 11.0 | 0.00 | 0.00 | 0.00 | 39 | 1010.7 |
| 20260502234736 | 65 | 231 | 0.0 | 18.0 | 0.00 | 0.00 | 0.00 | 39 | 1010.7 |
| 20260502234728 | 65 | 31 | 0.0 | 18.0 | 0.00 | 0.00 | 0.00 | 37 | 1010.7 |
| 20260502234703 | 65 | 261 | 0.0 | 18.0 | 0.00 | 0.00 | 0.00 | 39 | 1010.6 |
| 20260502234335 | 65 | 209 | 0.0 | 18.0 | 0.00 | 0.00 | 0.00 | 37 | 1010.6 |
| 20260502234133 | 65 | 230 | 0.0 | 18.0 | 0.00 | 0.00 | 0.00 | 37 | 1010.8 |
| 20260502233942 | 65 | 231 | 0.0 | 18.0 | 0.00 | 0.00 | 0.00 | 38 | 1010.8 |
| 20260502233932 | 65 | 231 | 0.0 | 18.0 | 0.00 | 0.00 | 0.00 | 38 | 1010.9 |
| 20260502233834 | 65 | 231 | 0.0 | 12.0 | 0.00 | 0.00 | 0.00 | 38 | 1010.7 |
| 20260502233532 | 65 | 247 | 0.0 | 12.0 | 0.00 | 0.00 | 0.00 | 38 | 1010.7 |
| 20260502233432 | 65 | 219 | 0.0 | 11.0 | 0.00 | 0.00 | 0.00 | 40 | 1010.8 |
| 20260502233332 | 65 | 212 | 0.0 | 9.0 | 0.00 | 0.00 | 0.00 | 40 | 1010.8 |
| 20260502233235 | 65 | 319 | 0.0 | 7.0 | 0.00 | 0.00 | 0.00 | 39 | 1010.8 |
| 20260502233212 | 65 | 199 | 0.0 | 9.0 | 0.00 | 0.00 | 0.00 | 39 | 1010.7 |
| 20260502233145 | 65 | 319 | 0.0 | 7.0 | 0.00 | 0.00 | 0.00 | 39 | 1010.7 |
| 20260502232732 | 65 | 216 | 0.0 | 4.0 | 0.00 | 0.00 | 0.00 | 39 | 1010.7 |
| 20260502232523 | 65 | 199 | 0.0 | 3.0 | 0.00 | 0.00 | 0.00 | 38 | 1010.7 |
| 20260502232430 | 65 | 243 | 0.0 | 1.0 | 0.00 | 0.00 | 0.00 | 38 | 1010.7 |
| 20260502232318 | 65 | 243 | 0.0 | 3.0 | 0.00 | 0.00 | 0.00 | 38 | 1010.7 |
| 20260502232254 | 65 | 243 | 0.0 | 7.0 | 0.00 | 0.00 | 0.00 | 38 | 1010.7 |
| 20260502232210 | 65 | 243 | 0.0 | 7.0 | 0.00 | 0.00 | 0.00 | 38 | 1010.8 |